VOE53XN LFST-LFML
Flight info
| Callsign | VOE53XN |
|---|---|
| Flight time | 1h 8m |
| Altitude | 31000 |
| Route | MIRGU DCT BALSI |
| Aircraft | A320/M-SDFGHIJ1RWY/LB1 |
Departure
| Time | 2026-05-04 07:49 |
|---|---|
| Airport | Strasbourg Airport (LFST) |
Arrival
| Time | 2026-05-04 08:57 |
|---|---|
| Airport | Marseille Provence Airport (LFML) |
| Time | Latitude | Longitude | Altitude | Speed | Heading |
|---|---|---|---|---|---|
| 2026-05-04 07:28 | 48.54478 | 7.62979 | 512 ft | 0 kts | 346° |
| 2026-05-04 07:41 | 48.54469 | 7.62983 | 512 ft | 4 kts | 346° |
| 2026-05-04 07:41 | 48.54443 | 7.62994 | 512 ft | 4 kts | 332° |
| 2026-05-04 07:41 | 48.54424 | 7.63014 | 512 ft | 4 kts | 301° |
| 2026-05-04 07:41 | 48.54424 | 7.63043 | 512 ft | 4 kts | 217° |
| 2026-05-04 07:42 | 48.54447 | 7.63058 | 512 ft | 3 kts | 195° |
| 2026-05-04 07:42 | 48.54451 | 7.63059 | 512 ft | 0 kts | 195° |
| 2026-05-04 07:44 | 48.54445 | 7.63057 | 512 ft | 6 kts | 195° |
| 2026-05-04 07:44 | 48.54392 | 7.63058 | 512 ft | 7 kts | 153° |
| 2026-05-04 07:44 | 48.54335 | 7.63134 | 512 ft | 15 kts | 138° |
| 2026-05-04 07:45 | 48.54321 | 7.63267 | 512 ft | 14 kts | 57° |
| 2026-05-04 07:45 | 48.54390 | 7.63385 | 512 ft | 16 kts | 49° |
| 2026-05-04 07:45 | 48.54464 | 7.63513 | 512 ft | 13 kts | 49° |
| 2026-05-04 07:45 | 48.54483 | 7.63545 | 512 ft | 3 kts | 49° |
| 2026-05-04 07:46 | 48.54500 | 7.63574 | 512 ft | 6 kts | 48° |
| 2026-05-04 07:46 | 48.54550 | 7.63659 | 512 ft | 14 kts | 49° |
| 2026-05-04 07:46 | 48.54614 | 7.63769 | 512 ft | 13 kts | 49° |
| 2026-05-04 07:46 | 48.54647 | 7.63855 | 512 ft | 8 kts | 92° |
| 2026-05-04 07:47 | 48.54623 | 7.63922 | 512 ft | 7 kts | 135° |
| 2026-05-04 07:47 | 48.54591 | 7.63962 | 512 ft | 5 kts | 140° |
| 2026-05-04 07:47 | 48.54552 | 7.64003 | 511 ft | 8 kts | 156° |
| 2026-05-04 07:49 | 48.52292 | 7.60193 | 1629 ft | 162 kts | 227° |
| 2026-05-04 07:49 | 48.51552 | 7.58931 | 2390 ft | 162 kts | 228° |
| 2026-05-04 07:49 | 48.50791 | 7.57557 | 2777 ft | 181 kts | 238° |
| 2026-05-04 07:50 | 48.50331 | 7.55668 | 3046 ft | 205 kts | 259° |
| 2026-05-04 07:50 | 48.50080 | 7.53425 | 3382 ft | 230 kts | 259° |
| 2026-05-04 07:50 | 48.49797 | 7.50932 | 3878 ft | 251 kts | 259° |
| 2026-05-04 07:50 | 48.49496 | 7.48300 | 4781 ft | 257 kts | 260° |
| 2026-05-04 07:51 | 48.49191 | 7.45645 | 5811 ft | 258 kts | 259° |
| 2026-05-04 07:51 | 48.48883 | 7.42975 | 6818 ft | 259 kts | 259° |
| 2026-05-04 07:51 | 48.48567 | 7.40271 | 7649 ft | 264 kts | 258° |
| 2026-05-04 07:51 | 48.48244 | 7.37516 | 8444 ft | 270 kts | 257° |
| 2026-05-04 07:52 | 48.47912 | 7.34703 | 9225 ft | 276 kts | 256° |
| 2026-05-04 07:52 | 48.47570 | 7.31817 | 9977 ft | 283 kts | 256° |
| 2026-05-04 07:52 | 48.47213 | 7.28826 | 10444 ft | 300 kts | 256° |
| 2026-05-04 07:52 | 48.46823 | 7.25611 | 10732 ft | 321 kts | 255° |
| 2026-05-04 07:53 | 48.46157 | 7.22385 | 11353 ft | 325 kts | 243° |
| 2026-05-04 07:54 | 48.34441 | 7.06184 | 16320 ft | 342 kts | 217° |
| 2026-05-04 07:55 | 48.32588 | 7.03985 | 16956 ft | 346 kts | 218° |
| 2026-05-04 07:55 | 48.30663 | 7.01704 | 17601 ft | 349 kts | 218° |
| 2026-05-04 07:55 | 48.28747 | 6.99434 | 18246 ft | 353 kts | 218° |
| 2026-05-04 07:55 | 48.26830 | 6.97167 | 18787 ft | 357 kts | 218° |
| 2026-05-04 07:56 | 48.25512 | 6.95607 | 19159 ft | 359 kts | 218° |
| 2026-05-04 07:56 | 48.23547 | 6.93281 | 19736 ft | 361 kts | 218° |
| 2026-05-04 07:56 | 48.20926 | 6.90181 | 20484 ft | 364 kts | 218° |
| 2026-05-04 07:56 | 48.18931 | 6.87831 | 21035 ft | 366 kts | 217° |
| 2026-05-04 07:57 | 48.17573 | 6.86234 | 21405 ft | 368 kts | 217° |
| 2026-05-04 07:57 | 48.14898 | 6.83089 | 22126 ft | 370 kts | 217° |
| 2026-05-04 07:57 | 48.13528 | 6.81478 | 22477 ft | 372 kts | 217° |
| 2026-05-04 07:57 | 48.10817 | 6.78298 | 23164 ft | 375 kts | 217° |
| 2026-05-04 07:58 | 48.09428 | 6.76670 | 23509 ft | 377 kts | 217° |
| 2026-05-04 07:58 | 48.07350 | 6.74238 | 23952 ft | 379 kts | 217° |
| 2026-05-04 07:58 | 48.05268 | 6.71805 | 24378 ft | 381 kts | 217° |
| 2026-05-04 07:58 | 48.03106 | 6.69494 | 24779 ft | 383 kts | 210° |
| 2026-05-04 07:59 | 48.00706 | 6.67773 | 25204 ft | 385 kts | 200° |
| 2026-05-04 07:59 | 47.98116 | 6.66728 | 25608 ft | 387 kts | 192° |
| 2026-05-04 07:59 | 47.95459 | 6.65954 | 26002 ft | 389 kts | 192° |
| 2026-05-04 07:59 | 47.92798 | 6.65175 | 26416 ft | 391 kts | 192° |
| 2026-05-04 08:00 | 47.90153 | 6.64401 | 26798 ft | 393 kts | 192° |
| 2026-05-04 08:00 | 47.87462 | 6.63607 | 27180 ft | 395 kts | 192° |
| 2026-05-04 08:00 | 47.84756 | 6.62804 | 27561 ft | 397 kts | 192° |
| 2026-05-04 08:02 | 47.65446 | 6.57153 | 30126 ft | 411 kts | 193° |
| 2026-05-04 08:02 | 47.62633 | 6.56331 | 30442 ft | 413 kts | 193° |
| 2026-05-04 08:02 | 47.59809 | 6.55503 | 30772 ft | 414 kts | 193° |
| 2026-05-04 08:03 | 47.56974 | 6.54673 | 31007 ft | 415 kts | 193° |
| 2026-05-04 08:03 | 47.54176 | 6.53856 | 31049 ft | 403 kts | 193° |
| 2026-05-04 08:03 | 47.51471 | 6.53070 | 31053 ft | 391 kts | 193° |
| 2026-05-04 08:03 | 47.48814 | 6.52299 | 31054 ft | 388 kts | 193° |
| 2026-05-04 08:04 | 47.43533 | 6.50769 | 31053 ft | 386 kts | 193° |
| 2026-05-04 08:04 | 47.38270 | 6.49243 | 31045 ft | 385 kts | 193° |
| 2026-05-04 08:05 | 47.33146 | 6.47762 | 31051 ft | 385 kts | 193° |
| 2026-05-04 08:05 | 47.27888 | 6.46245 | 31051 ft | 385 kts | 193° |
| 2026-05-04 08:06 | 47.22664 | 6.44742 | 31047 ft | 384 kts | 193° |
| 2026-05-04 08:06 | 47.17426 | 6.43244 | 31042 ft | 384 kts | 193° |
| 2026-05-04 08:08 | 46.96514 | 6.37273 | 31038 ft | 382 kts | 193° |
| 2026-05-04 08:11 | 46.73126 | 6.30639 | 31029 ft | 380 kts | 193° |
| 2026-05-04 08:11 | 46.65338 | 6.28446 | 31024 ft | 380 kts | 193° |
| 2026-05-04 08:12 | 46.60150 | 6.26990 | 31027 ft | 379 kts | 193° |
| 2026-05-04 08:12 | 46.54966 | 6.25540 | 31027 ft | 379 kts | 193° |
| 2026-05-04 08:13 | 46.49792 | 6.24100 | 31028 ft | 378 kts | 193° |
| 2026-05-04 08:13 | 46.44627 | 6.22650 | 31034 ft | 378 kts | 193° |
| 2026-05-04 08:14 | 46.39462 | 6.21200 | 31036 ft | 377 kts | 193° |
| 2026-05-04 08:16 | 46.18908 | 6.15492 | 31043 ft | 376 kts | 193° |
| 2026-05-04 08:16 | 46.13770 | 6.14078 | 31041 ft | 375 kts | 193° |
| 2026-05-04 08:17 | 46.08643 | 6.12676 | 31036 ft | 375 kts | 193° |
| 2026-05-04 08:17 | 46.03506 | 6.11270 | 31042 ft | 376 kts | 193° |
| 2026-05-04 08:19 | 45.82972 | 6.05625 | 31034 ft | 376 kts | 192° |
| 2026-05-04 08:20 | 45.77830 | 6.04226 | 31040 ft | 376 kts | 192° |
| 2026-05-04 08:20 | 45.72723 | 6.02839 | 31032 ft | 376 kts | 192° |
| 2026-05-04 08:21 | 45.67571 | 6.01442 | 31033 ft | 377 kts | 192° |
| 2026-05-04 08:21 | 45.62416 | 6.00040 | 31034 ft | 377 kts | 192° |
| 2026-05-04 08:22 | 45.57259 | 5.98646 | 31033 ft | 377 kts | 192° |
| 2026-05-04 08:24 | 45.41428 | 5.87001 | 31031 ft | 380 kts | 223° |
| 2026-05-04 08:24 | 45.39570 | 5.84334 | 31031 ft | 380 kts | 223° |
| 2026-05-04 08:24 | 45.35834 | 5.78996 | 31030 ft | 381 kts | 223° |
| 2026-05-04 08:25 | 45.32094 | 5.73666 | 31031 ft | 381 kts | 223° |
| 2026-05-04 08:25 | 45.28363 | 5.68359 | 31031 ft | 383 kts | 223° |
| 2026-05-04 08:27 | 45.13154 | 5.46789 | 29405 ft | 387 kts | 223° |
| 2026-05-04 08:28 | 45.11260 | 5.44109 | 28948 ft | 382 kts | 223° |
| 2026-05-04 08:28 | 45.09401 | 5.41482 | 28645 ft | 373 kts | 223° |
| 2026-05-04 08:28 | 45.07574 | 5.38907 | 28321 ft | 368 kts | 223° |
| 2026-05-04 08:28 | 45.05767 | 5.36364 | 27999 ft | 366 kts | 223° |
| 2026-05-04 08:29 | 45.03968 | 5.33833 | 27679 ft | 364 kts | 223° |
| 2026-05-04 08:29 | 45.02177 | 5.31318 | 27358 ft | 362 kts | 223° |
| 2026-05-04 08:29 | 45.00394 | 5.28817 | 27045 ft | 360 kts | 223° |
| 2026-05-04 08:31 | 44.88148 | 5.11695 | 24857 ft | 348 kts | 223° |
| 2026-05-04 08:33 | 44.76286 | 4.95202 | 22704 ft | 337 kts | 223° |
| 2026-05-04 08:33 | 44.74620 | 4.92901 | 22414 ft | 335 kts | 223° |
| 2026-05-04 08:35 | 44.60849 | 4.81772 | 20013 ft | 322 kts | 206° |
| 2026-05-04 08:35 | 44.58855 | 4.80368 | 19665 ft | 320 kts | 206° |
| 2026-05-04 08:35 | 44.56866 | 4.78967 | 19321 ft | 319 kts | 206° |
| 2026-05-04 08:35 | 44.54800 | 4.77870 | 18980 ft | 318 kts | 194° |
| 2026-05-04 08:37 | 44.41864 | 4.74757 | 17023 ft | 310 kts | 191° |
| 2026-05-04 08:37 | 44.39769 | 4.74262 | 16709 ft | 309 kts | 191° |
| 2026-05-04 08:37 | 44.37633 | 4.73757 | 16395 ft | 307 kts | 191° |
| 2026-05-04 08:38 | 44.35529 | 4.73258 | 16083 ft | 306 kts | 191° |
| 2026-05-04 08:38 | 44.33462 | 4.72769 | 15775 ft | 305 kts | 191° |
| 2026-05-04 08:38 | 44.31347 | 4.72272 | 15461 ft | 303 kts | 190° |
| 2026-05-04 08:40 | 44.17017 | 4.68913 | 13307 ft | 294 kts | 190° |
| 2026-05-04 08:40 | 44.15003 | 4.68438 | 13006 ft | 293 kts | 190° |
| 2026-05-04 08:40 | 44.12990 | 4.68072 | 12709 ft | 291 kts | 182° |
| 2026-05-04 08:41 | 44.10980 | 4.68351 | 12413 ft | 292 kts | 168° |
| 2026-05-04 08:41 | 44.09062 | 4.69287 | 12108 ft | 293 kts | 160° |
| 2026-05-04 08:41 | 44.07181 | 4.70354 | 11817 ft | 291 kts | 160° |
| 2026-05-04 08:41 | 44.05305 | 4.71410 | 11518 ft | 290 kts | 161° |
| 2026-05-04 08:42 | 44.03441 | 4.72452 | 11229 ft | 289 kts | 161° |
| 2026-05-04 08:42 | 44.01580 | 4.73491 | 10937 ft | 287 kts | 161° |
| 2026-05-04 08:42 | 43.99730 | 4.74528 | 10614 ft | 286 kts | 161° |
| 2026-05-04 08:42 | 43.97908 | 4.75551 | 10368 ft | 280 kts | 161° |
| 2026-05-04 08:43 | 43.96107 | 4.76564 | 10052 ft | 278 kts | 161° |
| 2026-05-04 08:43 | 43.94327 | 4.77564 | 9755 ft | 275 kts | 161° |
| 2026-05-04 08:43 | 43.92560 | 4.78555 | 9469 ft | 272 kts | 161° |
| 2026-05-04 08:43 | 43.90812 | 4.79537 | 9188 ft | 270 kts | 161° |
| 2026-05-04 08:44 | 43.89073 | 4.80513 | 8912 ft | 269 kts | 161° |
| 2026-05-04 08:44 | 43.87346 | 4.81481 | 8639 ft | 267 kts | 161° |
| 2026-05-04 08:46 | 43.75681 | 4.88023 | 6804 ft | 236 kts | 161° |
| 2026-05-04 08:46 | 43.74207 | 4.88854 | 6574 ft | 232 kts | 161° |
| 2026-05-04 08:46 | 43.72734 | 4.89683 | 6335 ft | 223 kts | 161° |
| 2026-05-04 08:46 | 43.71795 | 4.90210 | 6181 ft | 216 kts | 161° |
| 2026-05-04 08:47 | 43.70443 | 4.90968 | 5968 ft | 207 kts | 161° |
| 2026-05-04 08:47 | 43.69114 | 4.91720 | 5757 ft | 205 kts | 161° |
| 2026-05-04 08:47 | 43.67829 | 4.92453 | 5549 ft | 195 kts | 161° |
| 2026-05-04 08:47 | 43.66585 | 4.93161 | 5358 ft | 192 kts | 161° |
| 2026-05-04 08:48 | 43.65384 | 4.93846 | 5170 ft | 181 kts | 161° |
| 2026-05-04 08:48 | 43.64249 | 4.94493 | 4970 ft | 172 kts | 161° |
| 2026-05-04 08:48 | 43.63177 | 4.95106 | 4792 ft | 163 kts | 161° |
| 2026-05-04 08:48 | 43.62156 | 4.95690 | 4631 ft | 155 kts | 161° |
| 2026-05-04 08:49 | 43.61298 | 4.96504 | 4557 ft | 144 kts | 144° |
| 2026-05-04 08:50 | 43.57346 | 5.01955 | 3595 ft | 131 kts | 137° |
| 2026-05-04 08:50 | 43.56715 | 5.02858 | 3424 ft | 131 kts | 137° |
| 2026-05-04 08:51 | 43.56083 | 5.03763 | 3245 ft | 131 kts | 136° |
| 2026-05-04 08:51 | 43.55454 | 5.04664 | 3070 ft | 131 kts | 136° |
| 2026-05-04 08:51 | 43.54832 | 5.05556 | 2888 ft | 130 kts | 135° |
| 2026-05-04 08:51 | 43.54204 | 5.06455 | 2717 ft | 130 kts | 135° |
| 2026-05-04 08:52 | 43.53578 | 5.07352 | 2545 ft | 130 kts | 134° |
| 2026-05-04 08:52 | 43.52951 | 5.08248 | 2374 ft | 129 kts | 133° |
| 2026-05-04 08:52 | 43.52329 | 5.09138 | 2194 ft | 128 kts | 133° |
| 2026-05-04 08:52 | 43.51708 | 5.10026 | 2019 ft | 129 kts | 132° |
| 2026-05-04 08:53 | 43.51089 | 5.10911 | 1847 ft | 128 kts | 132° |
| 2026-05-04 08:54 | 43.46744 | 5.17117 | 643 ft | 128 kts | 130° |
| 2026-05-04 08:55 | 43.46129 | 5.17994 | 470 ft | 128 kts | 130° |
| 2026-05-04 08:55 | 43.45513 | 5.18872 | 299 ft | 128 kts | 130° |
| 2026-05-04 08:55 | 43.44898 | 5.19749 | 118 ft | 127 kts | 131° |
| 2026-05-04 08:55 | 43.44298 | 5.20607 | 19 ft | 114 kts | 133° |
| 2026-05-04 08:57 | 43.43332 | 5.22129 | 52 ft | 9 kts | 90° |
| 2026-05-04 09:01 | 43.43922 | 5.22510 | 47 ft | 3 kts | 288° |
| 2026-05-04 09:01 | 43.43922 | 5.22487 | 46 ft | 2 kts | 268° |
| 2026-05-04 09:01 | 43.43920 | 5.22463 | 46 ft | 3 kts | 264° |
| 2026-05-04 09:01 | 43.43920 | 5.22456 | 46 ft | 0 kts | 264° |